Time,TemperatureF,DewpointF,PressureIn,WindDirection,WindDirectionDegrees,WindSpeedMPH,WindSpeedGustMPH,Humidity,HourlyPrecipIn,Conditions,Clouds,dailyrainin,SoftwareType,DateUTC
2013-08-29 00:23:00,71.0,66.0,30.01,ENE,75,0.0,0.0,85,0.00,,,0.00,,2013-08-29 05:23:00,
2013-08-29 00:52:00,70.0,66.0,30.01,ENE,75,0.0,0.0,86,0.00,,,0.00,,2013-08-29 05:52:00,
2013-08-29 01:12:00,70.0,66.0,30.01,ENE,75,0.0,0.0,87,0.00,,,0.00,,2013-08-29 06:12:00,
2013-08-29 01:22:00,70.0,66.0,30.02,ENE,75,0.0,1.0,88,0.00,,,0.00,,2013-08-29 06:22:00,
2013-08-29 01:52:00,70.0,67.0,30.01,ENE,75,0.0,0.0,89,0.00,,,0.00,,2013-08-29 06:52:00,
2013-08-29 02:22:00,69.0,66.0,30.01,ENE,75,0.0,0.0,90,0.00,,,0.00,,2013-08-29 07:22:00,
2013-08-29 02:53:00,69.0,66.0,30.01,ENE,75,0.0,0.0,90,0.00,,,0.00,,2013-08-29 07:53:00,
2013-08-29 03:12:00,69.0,66.0,30.01,ENE,75,0.0,0.0,91,0.00,,,0.00,,2013-08-29 08:12:00,
2013-08-29 03:22:00,69.0,66.0,30.01,ENE,75,0.0,0.0,91,0.00,,,0.00,,2013-08-29 08:22:00,
2013-08-29 03:32:00,69.0,66.0,30.01,ENE,75,0.0,0.0,91,0.00,,,0.00,,2013-08-29 08:32:00,
2013-08-29 03:52:00,68.0,66.0,30.02,ENE,75,0.0,0.0,93,0.00,,,0.00,,2013-08-29 08:52:00,
2013-08-29 04:01:00,68.0,66.0,30.02,ENE,75,0.0,0.0,93,0.00,,,0.00,,2013-08-29 09:01:00,
2013-08-29 04:12:00,68.0,66.0,30.02,ENE,75,0.0,0.0,93,0.00,,,0.00,,2013-08-29 09:12:00,
2013-08-29 04:22:00,68.0,66.0,30.03,ENE,75,0.0,0.0,94,0.00,,,0.00,,2013-08-29 09:22:00,
2013-08-29 04:55:00,67.0,65.0,30.02,ENE,75,0.0,0.0,94,0.00,,,0.00,,2013-08-29 09:55:00,
2013-08-29 05:06:00,67.0,65.0,30.02,ENE,75,0.0,0.0,94,0.00,,,0.00,,2013-08-29 10:06:00,
2013-08-29 05:24:00,67.0,66.0,30.02,ENE,75,0.0,0.0,95,0.00,,,0.00,,2013-08-29 10:24:00,
2013-08-29 05:53:00,66.0,65.0,30.03,ENE,75,0.0,0.0,95,0.00,,,0.00,,2013-08-29 10:53:00,
2013-08-29 06:12:00,66.0,65.0,30.03,ENE,75,0.0,0.0,96,0.00,,,0.00,,2013-08-29 11:12:00,
2013-08-29 06:22:00,66.0,65.0,30.03,ENE,75,0.0,0.0,96,0.00,,,0.00,,2013-08-29 11:22:00,
2013-08-29 06:52:00,66.0,65.0,30.04,ENE,75,0.0,0.0,96,0.00,,,0.00,,2013-08-29 11:52:00,
2013-08-29 07:02:00,66.0,65.0,30.04,ENE,75,0.0,0.0,96,0.00,,,0.00,,2013-08-29 12:02:00,
2013-08-29 07:22:00,66.0,65.0,30.04,ENE,75,0.0,1.0,97,0.00,,,0.00,,2013-08-29 12:22:00,
2013-08-29 07:52:00,67.0,66.0,30.04,ENE,75,0.0,1.0,97,0.00,,,0.00,,2013-08-29 12:52:00,
2013-08-29 08:12:00,68.0,67.0,30.05,NE,53,0.0,0.0,96,0.00,,,0.00,,2013-08-29 13:12:00,
2013-08-29 08:22:00,68.0,67.0,30.06,NE,53,0.0,0.0,96,0.00,,,0.00,,2013-08-29 13:22:00,
2013-08-29 08:32:00,68.0,67.0,30.06,NE,53,0.0,0.0,96,0.00,,,0.00,,2013-08-29 13:32:00,
2013-08-29 08:42:00,68.0,67.0,30.06,NE,53,0.0,0.0,96,0.00,,,0.00,,2013-08-29 13:42:00,
2013-08-29 08:52:00,70.0,68.0,30.06,NE,53,0.0,0.0,92,0.00,,,0.00,,2013-08-29 13:52:00,
2013-08-29 09:11:00,70.0,67.0,30.06,NE,53,0.0,0.0,91,0.00,,,0.00,,2013-08-29 14:11:00,
2013-08-29 09:21:00,70.0,67.0,30.06,NE,53,0.0,0.0,91,0.00,,,0.00,,2013-08-29 14:21:00,
2013-08-29 09:31:00,70.0,67.0,30.06,NE,53,0.0,0.0,91,0.00,,,0.00,,2013-08-29 14:31:00,
2013-08-29 10:22:00,76.0,69.0,30.06,WSW,257,0.0,1.0,79,0.00,,,0.00,,2013-08-29 15:22:00,
2013-08-29 10:53:00,78.0,68.0,30.06,WSW,255,2.0,3.0,72,0.00,,,0.00,,2013-08-29 15:53:00,
2013-08-29 11:13:00,79.0,68.0,30.06,WSW,256,3.0,3.0,70,0.00,,,0.00,,2013-08-29 16:13:00,
2013-08-29 11:24:00,79.0,68.0,30.06,WSW,256,3.0,3.0,70,0.00,,,0.00,,2013-08-29 16:24:00,
2013-08-29 11:43:00,81.0,67.0,30.05,West,267,2.0,4.0,62,0.00,,,0.00,,2013-08-29 16:43:00,
2013-08-29 11:54:00,83.0,67.0,30.05,SE,138,3.0,3.0,58,0.00,,,0.00,,2013-08-29 16:54:00,
2013-08-29 12:22:00,83.0,67.0,30.05,WSW,238,0.0,3.0,59,0.00,,,0.00,,2013-08-29 17:22:00,
2013-08-29 12:34:00,83.0,67.0,30.05,WSW,238,0.0,3.0,59,0.00,,,0.00,,2013-08-29 17:34:00,
2013-08-29 12:53:00,84.0,66.0,30.04,SSE,160,0.0,4.0,55,0.00,,,0.00,,2013-08-29 17:53:00,
2013-08-29 13:21:00,85.0,66.0,30.03,SSE,163,0.0,3.0,53,0.00,,,0.00,,2013-08-29 18:21:00,
2013-08-29 13:32:00,85.0,66.0,30.03,SSE,163,0.0,3.0,53,0.00,,,0.00,,2013-08-29 18:32:00,
2013-08-29 13:52:00,86.0,66.0,30.03,WSW,250,4.0,5.0,51,0.00,,,0.00,,2013-08-29 18:52:00,
2013-08-29 14:01:00,86.0,66.0,30.03,WSW,250,4.0,5.0,51,0.00,,,0.00,,2013-08-29 19:01:00,
2013-08-29 14:11:00,86.0,66.0,30.03,WSW,250,4.0,5.0,51,0.00,,,0.00,,2013-08-29 19:11:00,
2013-08-29 14:22:00,86.0,66.0,30.03,WSW,250,4.0,5.0,51,0.00,,,0.00,,2013-08-29 19:22:00,
2013-08-29 14:53:00,86.0,66.0,30.00,SSE,150,4.0,4.0,51,0.00,,,0.00,,2013-08-29 19:53:00,
2013-08-29 15:13:00,86.0,66.0,30.00,SSE,147,4.0,5.0,51,0.00,,,0.00,,2013-08-29 20:13:00,
2013-08-29 15:22:00,86.0,66.0,30.00,SSE,147,4.0,5.0,51,0.00,,,0.00,,2013-08-29 20:22:00,
2013-08-29 15:52:00,89.0,66.0,29.99,South,187,2.0,5.0,47,0.00,,,0.00,,2013-08-29 20:52:00,
2013-08-29 16:12:00,89.0,65.0,29.99,SSE,151,3.0,4.0,46,0.00,,,0.00,,2013-08-29 21:12:00,
2013-08-29 16:22:00,89.0,65.0,29.99,SSE,151,3.0,4.0,46,0.00,,,0.00,,2013-08-29 21:22:00,
2013-08-29 16:44:00,89.0,65.0,29.98,South,178,0.0,4.0,46,0.00,,,0.00,,2013-08-29 21:44:00,
2013-08-29 16:54:00,90.0,66.0,29.98,SW,230,0.0,1.0,46,0.00,,,0.00,,2013-08-29 21:54:00,
2013-08-29 17:14:00,90.0,66.0,29.98,SSE,149,0.0,4.0,45,0.00,,,0.00,,2013-08-29 22:14:00,
2013-08-29 17:24:00,90.0,66.0,29.98,SSE,149,0.0,4.0,45,0.00,,,0.00,,2013-08-29 22:24:00,
2013-08-29 17:33:00,90.0,66.0,29.98,SSE,149,0.0,4.0,45,0.00,,,0.00,,2013-08-29 22:33:00,
2013-08-29 17:53:00,90.0,67.0,29.97,SE,144,0.0,3.0,47,0.00,,,0.00,,2013-08-29 22:53:00,
2013-08-29 18:22:00,88.0,67.0,29.96,SSE,160,0.0,5.0,50,0.00,,,0.00,,2013-08-29 23:22:00,
2013-08-29 18:42:00,88.0,68.0,29.96,SSE,159,0.0,2.0,52,0.00,,,0.00,,2013-08-29 23:42:00,
2013-08-29 18:53:00,88.0,68.0,29.96,SSE,159,0.0,2.0,52,0.00,,,0.00,,2013-08-29 23:53:00,
2013-08-29 19:02:00,88.0,68.0,29.96,SSE,159,0.0,2.0,52,0.00,,,0.00,,2013-08-30 00:02:00,
2013-08-29 19:22:00,84.0,68.0,29.95,SSE,167,0.0,4.0,58,0.00,,,0.00,,2013-08-30 00:22:00,
2013-08-29 19:52:00,81.0,67.0,29.96,SSE,168,0.0,1.0,63,0.00,,,0.00,,2013-08-30 00:52:00,
2013-08-29 20:12:00,80.0,67.0,29.96,SSE,166,2.0,2.0,64,0.00,,,0.00,,2013-08-30 01:12:00,
2013-08-29 20:22:00,80.0,67.0,29.95,SE,129,0.0,3.0,64,0.00,,,0.00,,2013-08-30 01:22:00,
2013-08-29 20:52:00,78.0,66.0,29.96,SSE,162,0.0,2.0,66,0.00,,,0.00,,2013-08-30 01:52:00,
2013-08-29 21:21:00,77.0,66.0,29.96,SSE,162,0.0,1.0,68,0.00,,,0.00,,2013-08-30 02:21:00,
2013-08-29 21:42:00,76.0,65.0,29.96,South,171,0.0,2.0,70,0.00,,,0.00,,2013-08-30 02:42:00,
2013-08-29 21:52:00,75.0,65.0,29.96,South,171,0.0,3.0,72,0.00,,,0.00,,2013-08-30 02:52:00,
2013-08-29 22:22:00,74.0,66.0,29.96,WNW,300,0.0,3.0,77,0.00,,,0.00,,2013-08-30 03:22:00,
2013-08-29 22:55:00,74.0,67.0,29.95,SSW,203,1.0,3.0,80,0.00,,,0.00,,2013-08-30 03:55:00,
2013-08-29 23:04:00,74.0,67.0,29.95,SSW,203,1.0,3.0,80,0.00,,,0.00,,2013-08-30 04:04:00,
2013-08-29 23:14:00,74.0,67.0,29.95,SSW,203,1.0,3.0,80,0.00,,,0.00,,2013-08-30 04:14:00,
2013-08-29 23:24:00,74.0,67.0,29.95,South,173,0.0,1.0,80,0.00,,,0.00,,2013-08-30 04:24:00,
2013-08-29 23:54:00,73.0,67.0,29.96,South,178,0.0,2.0,81,0.00,,,0.00,,2013-08-30 04:54:00,